Time;durP1;ratioP1;P1;durP2;ratioP2;P2;SDS_P1;SDS_P2;PMS_P1;PMS_P2;Temp;Humidity;BMP_temperature;BMP_pressure;BME280_temperature;BME280_humidity;BME280_pressure;Samples;Min_cycle;Max_cycle;Signal;HPM_P1;HPM_P2
2021/12/31 00:00:06;;;;;;;8.60;7.70;;;;;;;12.52;100.00;100837.59;5080795;28;20173;-67
2021/12/31 00:02:32;;;;;;;10.60;8.50;;;;;;;12.27;100.00;100837.47;5079452;28;20207;-67
2021/12/31 00:04:57;;;;;;;8.67;7.87;;;;;;;12.29;100.00;100835.75;5080040;28;20700;-67
2021/12/31 00:07:23;;;;;;;11.80;9.13;;;;;;;12.53;100.00;100824.53;5079227;28;20169;-67
2021/12/31 00:09:48;;;;;;;10.27;9.17;;;;;;;12.27;100.00;100827.03;5079223;28;20248;-67
2021/12/31 00:12:13;;;;;;;13.77;10.57;;;;;;;12.48;100.00;100834.09;5079648;28;20514;-67
2021/12/31 00:14:38;;;;;;;14.03;11.17;;;;;;;12.60;98.76;100831.50;5079158;28;20196;-67
2021/12/31 00:17:04;;;;;;;12.43;11.00;;;;;;;12.42;100.00;100842.78;5079083;28;20553;-67
2021/12/31 00:19:32;;;;;;;14.13;10.80;;;;;;;12.59;100.00;100844.56;5079686;28;20530;-67
2021/12/31 00:22:01;;;;;;;12.83;10.00;;;;;;;12.60;99.74;100839.34;5078978;28;20165;-66
2021/12/31 00:24:27;;;;;;;13.50;11.60;;;;;;;12.58;99.80;100834.97;5078732;28;20519;-68
2021/12/31 00:26:52;;;;;;;13.90;10.47;;;;;;;12.39;100.00;100837.53;5079281;28;20647;-68
2021/12/31 00:29:18;;;;;;;14.93;11.07;;;;;;;12.32;100.00;100850.59;5078858;28;20435;-68
2021/12/31 00:31:43;;;;;;;13.07;10.60;;;;;;;12.58;100.00;100848.94;5078952;28;20187;-68
2021/12/31 00:34:09;;;;;;;12.47;11.00;;;;;;;12.28;100.00;100853.16;5079112;28;20165;-67
2021/12/31 00:36:39;;;;;;;13.00;11.67;;;;;;;12.40;100.00;100847.13;5078692;28;20172;-67
2021/12/31 00:39:04;;;;;;;12.70;10.83;;;;;;;12.30;100.00;100847.97;5078756;28;20183;-67
2021/12/31 00:41:29;;;;;;;15.40;11.30;;;;;;;12.43;100.00;100848.88;5079258;28;20411;-67
2021/12/31 00:43:54;;;;;;;14.03;11.43;;;;;;;12.40;100.00;100841.88;5078429;28;20218;-67
2021/12/31 00:46:20;;;;;;;13.30;11.30;;;;;;;12.45;100.00;100853.25;5078534;28;20211;-67
2021/12/31 00:48:45;;;;;;;16.53;11.70;;;;;;;12.39;100.00;100849.72;5079453;28;20443;-67
2021/12/31 00:51:10;;;;;;;14.00;12.33;;;;;;;12.35;100.00;100856.69;5078650;28;20176;-68
2021/12/31 00:53:36;;;;;;;13.30;11.90;;;;;;;12.45;100.00;100853.25;5078648;28;20301;-67
2021/12/31 00:56:01;;;;;;;14.63;12.17;;;;;;;12.41;100.00;100850.63;5085237;28;20184;-66
2021/12/31 00:58:27;;;;;;;15.27;13.67;;;;;;;12.62;98.72;100847.19;5085727;28;20183;-67
2021/12/31 01:00:52;;;;;;;17.57;13.90;;;;;;;12.61;100.00;100854.19;5085966;28;20165;-66
2021/12/31 01:03:17;;;;;;;14.70;13.03;;;;;;;12.50;100.00;100857.63;5086708;28;20498;-67
2021/12/31 01:05:43;;;;;;;15.93;13.63;;;;;;;12.34;100.00;100856.69;5086288;28;20526;-68
2021/12/31 01:08:08;;;;;;;17.50;13.87;;;;;;;12.42;99.95;100863.69;5086531;28;20169;-67
2021/12/31 01:10:33;;;;;;;19.43;14.37;;;;;;;12.51;99.81;100867.22;5081874;28;20164;-67
2021/12/31 01:12:59;;;;;;;17.53;13.87;;;;;;;12.75;98.49;100869.03;5078397;28;20219;-67
2021/12/31 01:15:37;;;;;;;19.80;15.03;;;;;;;12.34;100.00;100865.41;5078545;28;20469;-67
2021/12/31 01:18:27;;;;;;;18.30;14.40;;;;;;;12.42;100.00;100861.09;5078270;28;20195;-66
2021/12/31 01:20:51;;;;;;;18.93;14.50;;;;;;;12.42;100.00;100871.53;5077573;28;20416;-67
2021/12/31 01:23:17;;;;;;;21.83;14.60;;;;;;;12.46;99.70;100857.63;5078296;28;20397;-67
2021/12/31 01:25:43;;;;;;;16.53;14.73;;;;;;;12.44;100.00;100866.31;5078129;28;20204;-68
2021/12/31 01:28:08;;;;;;;20.87;14.50;;;;;;;12.32;100.00;100851.44;5079793;28;20812;-70
2021/12/31 01:30:33;;;;;;;24.30;14.83;;;;;;;12.55;99.42;100862.00;5079393;28;20169;-67
2021/12/31 01:32:59;;;;;;;17.87;14.70;;;;;;;12.54;99.17;100856.75;5079027;28;20181;-67
2021/12/31 01:35:24;;;;;;;16.80;13.90;;;;;;;12.65;98.44;100868.16;5079488;28;20259;-67
2021/12/31 01:37:49;;;;;;;16.60;13.20;;;;;;;12.34;99.58;100864.53;5081268;28;20228;-67
2021/12/31 01:40:15;;;;;;;16.27;13.30;;;;;;;12.65;97.12;100862.91;5082166;28;20168;-67
2021/12/31 01:42:40;;;;;;;15.60;12.13;;;;;;;12.42;98.17;100871.53;5082459;28;20172;-68
2021/12/31 01:45:10;;;;;;;15.90;12.50;;;;;;;12.41;98.36;100869.78;5081219;28;20573;-67
2021/12/31 01:47:46;;;;;;;18.63;12.63;;;;;;;12.67;97.49;100881.22;5082193;28;20173;-67
2021/12/31 01:50:12;;;;;;;15.90;12.47;;;;;;;12.48;97.92;100880.28;5082355;28;20392;-69
2021/12/31 01:52:41;;;;;;;15.90;12.63;;;;;;;12.57;96.99;100883.81;5081740;28;20451;-67
2021/12/31 01:55:09;;;;;;;16.73;13.40;;;;;;;12.54;97.65;100882.91;5082437;28;20439;-67
2021/12/31 01:57:35;;;;;;;16.50;11.77;;;;;;;12.63;97.02;100885.56;5082016;28;20454;-68
2021/12/31 02:00:00;;;;;;;22.10;14.10;;;;;;;12.53;97.08;100889.91;5083023;28;20468;-67
2021/12/31 02:02:25;;;;;;;15.33;11.40;;;;;;;12.39;97.12;100887.19;5083454;28;20165;-68
2021/12/31 02:04:53;;;;;;;21.17;12.00;;;;;;;12.63;96.12;100901.25;5085769;28;20200;-67
2021/12/31 02:07:18;;;;;;;13.93;11.97;;;;;;;12.52;96.37;100902.97;5083555;28;20161;-66
2021/12/31 02:09:48;;;;;;;17.10;12.10;;;;;;;12.65;95.47;100894.31;5082501;28;20398;-67
2021/12/31 02:12:14;;;;;;;16.20;11.20;;;;;;;12.52;96.08;100900.34;5082123;28;20173;-67
2021/12/31 02:14:39;;;;;;;15.13;11.07;;;;;;;12.42;96.07;100913.38;5080716;28;20677;-67
2021/12/31 02:17:07;;;;;;;15.57;11.67;;;;;;;12.58;95.22;100906.47;5082093;28;20161;-67
2021/12/31 02:19:33;;;;;;;13.20;10.00;;;;;;;12.68;94.84;100909.09;5081583;28;20160;-67
2021/12/31 02:21:59;;;;;;;16.70;10.33;;;;;;;12.42;94.73;100909.88;5081369;28;20463;-66
2021/12/31 02:24:24;;;;;;;15.47;11.80;;;;;;;12.63;94.50;100920.44;5081611;28;20192;-67
2021/12/31 02:26:50;;;;;;;15.10;10.77;;;;;;;12.52;95.03;100921.28;5081691;28;20173;-68
2021/12/31 02:29:16;;;;;;;21.57;10.60;;;;;;;12.55;93.93;100910.81;5081668;28;20550;-67
2021/12/31 02:31:42;;;;;;;14.93;10.40;;;;;;;12.79;93.05;100916.13;5081847;28;20169;-67
2021/12/31 02:34:07;;;;;;;16.40;9.40;;;;;;;12.63;93.50;100919.56;5082062;28;20401;-67
2021/12/31 02:36:32;;;;;;;12.83;9.90;;;;;;;12.30;95.05;100908.09;5081131;28;20487;-67
2021/12/31 02:38:57;;;;;;;12.63;9.93;;;;;;;12.68;93.84;100919.56;5081612;28;20161;-68
2021/12/31 02:41:23;;;;;;;12.47;9.67;;;;;;;12.63;93.92;100898.63;5081071;28;20183;-67
2021/12/31 02:43:48;;;;;;;11.00;9.90;;;;;;;12.70;93.47;100903.00;5081057;28;20177;-67
2021/12/31 02:46:13;;;;;;;13.47;9.80;;;;;;;12.80;92.07;100903.94;5081530;28;20254;-67
2021/12/31 02:48:39;;;;;;;14.63;10.30;;;;;;;12.68;92.50;100902.16;5081243;28;20275;-67
2021/12/31 02:51:06;;;;;;;14.60;9.57;;;;;;;12.57;92.29;100906.44;5081714;28;20172;-67
2021/12/31 02:53:36;;;;;;;12.87;9.87;;;;;;;12.55;92.83;100901.22;5080972;28;20224;-67
2021/12/31 02:56:05;;;;;;;11.03;9.57;;;;;;;12.65;92.28;100902.16;5080322;28;20568;-67
2021/12/31 02:58:32;;;;;;;11.43;9.20;;;;;;;12.79;91.58;100902.19;5081594;28;20447;-67
2021/12/31 03:00:59;;;;;;;12.53;9.40;;;;;;;12.63;92.23;100889.03;5080257;28;20411;-66
2021/12/31 03:03:25;;;;;;;9.60;8.67;;;;;;;12.58;92.65;100892.50;5079851;28;20419;-66
2021/12/31 03:05:53;;;;;;;10.63;9.53;;;;;;;12.61;92.48;100892.50;5081398;28;20254;-67
2021/12/31 03:08:18;;;;;;;12.73;9.07;;;;;;;12.78;91.39;100887.34;5080742;28;20422;-66
2021/12/31 03:10:44;;;;;;;13.67;9.60;;;;;;;12.62;91.90;100892.56;5079755;28;20689;-67
2021/12/31 03:13:09;;;;;;;16.43;9.70;;;;;;;12.69;91.52;100882.97;5080739;28;20183;-66
2021/12/31 03:15:36;;;;;;;14.90;9.60;;;;;;;12.87;91.29;100883.91;5080563;28;20181;-66
2021/12/31 03:18:03;;;;;;;16.00;9.30;;;;;;;12.53;92.24;100875.94;5079603;28;20188;-67
2021/12/31 03:20:41;;;;;;;12.83;8.60;;;;;;;12.63;91.47;100872.47;5080922;28;20386;-66
2021/12/31 03:23:06;;;;;;;11.90;8.77;;;;;;;12.60;91.43;100875.97;5080526;28;20478;-66
2021/12/31 03:25:32;;;;;;;10.93;8.17;;;;;;;12.80;90.93;100883.88;5080129;28;21139;-67
2021/12/31 03:27:57;;;;;;;14.60;9.00;;;;;;;12.85;91.03;100877.78;5080264;28;20173;-67
2021/12/31 03:30:23;;;;;;;15.13;8.87;;;;;;;12.52;91.61;100879.44;5080141;28;20177;-66
2021/12/31 03:32:48;;;;;;;10.50;8.30;;;;;;;12.62;90.78;100875.97;5080571;28;20558;-67
2021/12/31 03:35:13;;;;;;;13.27;7.93;;;;;;;12.61;90.86;100882.94;5079987;28;20177;-67
2021/12/31 03:37:39;;;;;;;16.20;8.30;;;;;;;12.87;90.04;100876.91;5080113;28;20177;-67
2021/12/31 03:40:05;;;;;;;10.97;8.20;;;;;;;12.91;90.06;100883.03;5080555;28;20184;-67
2021/12/31 03:42:31;;;;;;;12.10;7.83;;;;;;;12.78;90.33;100893.44;5079979;28;20434;-67
2021/12/31 03:44:57;;;;;;;10.13;8.43;;;;;;;12.84;90.49;100894.34;5079799;28;20449;-67
2021/12/31 03:47:22;;;;;;;12.93;8.27;;;;;;;12.72;90.67;100890.84;5080028;28;20427;-67
2021/12/31 03:49:47;;;;;;;11.80;7.97;;;;;;;12.44;91.92;100893.31;5079862;28;20180;-68
2021/12/31 03:52:13;;;;;;;9.80;8.23;;;;;;;13.03;89.19;100880.44;5079359;28;20185;-66
2021/12/31 03:54:38;;;;;;;8.93;7.67;;;;;;;12.49;91.86;100880.28;5080123;28;20204;-68
2021/12/31 03:57:03;;;;;;;9.93;8.03;;;;;;;12.59;91.68;100882.06;5079639;28;20183;-67
2021/12/31 03:59:29;;;;;;;13.30;8.30;;;;;;;12.66;92.03;100887.31;5079123;28;20181;-67
2021/12/31 04:01:54;;;;;;;10.40;8.27;;;;;;;12.61;91.97;100892.50;5080009;28;20179;-68
2021/12/31 04:04:20;;;;;;;10.30;8.40;;;;;;;12.53;92.78;100884.66;5079171;28;20542;-68
2021/12/31 04:06:45;;;;;;;13.30;8.70;;;;;;;12.57;92.16;100888.16;5079763;28;20195;-67
2021/12/31 04:09:10;;;;;;;11.80;8.83;;;;;;;12.54;92.86;100878.56;5081414;28;20411;-67
2021/12/31 04:11:36;;;;;;;14.87;8.77;;;;;;;12.66;93.00;100871.63;5081036;28;20269;-68
2021/12/31 04:14:01;;;;;;;14.80;10.87;;;;;;;12.46;93.44;100877.63;5079318;28;20168;-68
2021/12/31 04:16:26;;;;;;;15.67;10.43;;;;;;;12.51;93.50;100880.28;5079722;28;20165;-67
2021/12/31 04:18:52;;;;;;;9.97;8.47;;;;;;;12.42;93.32;100874.16;5079258;28;20523;-67
2021/12/31 04:21:19;;;;;;;14.30;8.87;;;;;;;12.40;93.16;100880.25;5079115;28;20168;-66
2021/12/31 04:23:51;;;;;;;10.80;9.00;;;;;;;12.73;91.60;100887.34;5079523;28;20214;-68
2021/12/31 04:26:17;;;;;;;9.70;8.27;;;;;;;12.51;92.38;100877.69;5079212;28;20495;-67
2021/12/31 04:28:43;;;;;;;11.17;8.70;;;;;;;12.67;91.54;100882.09;5079146;28;20419;-67
2021/12/31 04:31:08;;;;;;;12.37;7.93;;;;;;;12.78;90.51;100874.28;5079237;28;20183;-67
2021/12/31 04:33:33;;;;;;;16.40;8.53;;;;;;;12.71;90.23;100872.53;5078825;28;20458;-67
2021/12/31 04:35:59;;;;;;;10.67;7.73;;;;;;;12.59;90.73;100878.56;5078918;28;20224;-67
2021/12/31 04:38:24;;;;;;;10.97;7.60;;;;;;;12.47;90.95;100876.78;5079463;28;20168;-67
2021/12/31 04:40:50;;;;;;;12.07;7.77;;;;;;;12.56;90.62;100870.72;5078730;28;20523;-67
2021/12/31 04:43:15;;;;;;;8.03;7.00;;;;;;;12.60;91.00;100872.47;5078971;28;20207;-67
2021/12/31 04:45:40;;;;;;;9.93;7.13;;;;;;;12.59;90.48;100871.59;5079835;28;20200;-66
2021/12/31 04:48:05;;;;;;;11.13;7.30;;;;;;;12.38;91.05;100877.63;5080331;28;20177;-68
2021/12/31 04:50:31;;;;;;;10.17;6.87;;;;;;;12.95;89.11;100875.19;5079481;28;20183;-68
2021/12/31 04:52:56;;;;;;;12.90;6.80;;;;;;;12.69;89.51;100872.53;5078967;28;20224;-66
2021/12/31 04:55:22;;;;;;;9.47;6.40;;;;;;;12.50;89.88;100865.47;5078494;28;20593;-67
2021/12/31 04:57:48;;;;;;;9.30;6.77;;;;;;;13.07;87.40;100869.09;5078731;28;20259;-68
2021/12/31 05:00:15;;;;;;;10.87;6.70;;;;;;;12.91;88.02;100868.19;5078425;28;20180;-68
2021/12/31 05:02:40;;;;;;;8.80;6.17;;;;;;;12.64;89.21;100875.09;5078420;28;20793;-67
2021/12/31 05:05:06;;;;;;;13.90;6.40;;;;;;;12.54;89.04;100860.28;5078753;28;20462;-66
2021/12/31 05:07:31;;;;;;;9.33;6.30;;;;;;;13.05;87.29;100870.84;5078448;28;20644;-66
2021/12/31 05:09:56;;;;;;;6.77;5.90;;;;;;;12.66;87.84;100871.63;5078528;28;20526;-67
2021/12/31 05:12:26;;;;;;;8.97;6.20;;;;;;;12.75;88.02;100866.44;5077906;28;20191;-67
2021/12/31 05:14:52;;;;;;;6.83;5.80;;;;;;;13.07;86.77;100863.88;5077593;28;20173;-67
2021/12/31 05:17:17;;;;;;;10.10;5.30;;;;;;;12.90;86.98;100871.69;5060781;28;20401;-67
2021/12/31 05:19:44;;;;;;;10.47;7.10;;;;;;;12.91;87.58;100869.97;5078514;28;20198;-67
2021/12/31 05:22:12;;;;;;;7.00;5.50;;;;;;;12.94;86.78;100857.72;5078195;28;20191;-67
2021/12/31 05:24:39;;;;;;;9.10;6.10;;;;;;;12.79;87.28;100863.81;5078152;28;20463;-67
2021/12/31 05:27:04;;;;;;;7.70;5.77;;;;;;;13.12;85.98;100853.41;5078650;28;20411;-67
2021/12/31 05:29:30;;;;;;;12.27;6.00;;;;;;;12.96;86.63;100852.50;5078165;28;20493;-68
2021/12/31 05:31:55;;;;;;;10.57;6.30;;;;;;;12.79;87.16;100853.34;5078284;28;20175;-67
2021/12/31 05:34:20;;;;;;;12.87;5.63;;;;;;;12.86;87.20;100850.75;5078615;28;20173;-67
2021/12/31 05:36:46;;;;;;;7.60;5.53;;;;;;;13.00;86.35;100851.63;5078083;28;20165;-66
2021/12/31 05:39:13;;;;;;;7.70;5.83;;;;;;;12.82;87.06;100856.84;5078239;28;20172;-67
2021/12/31 05:41:39;;;;;;;10.73;6.53;;;;;;;12.91;86.80;100855.13;5078738;28;20179;-66
2021/12/31 05:44:05;;;;;;;8.40;6.80;;;;;;;12.84;87.04;100853.38;5077903;28;20415;-67
2021/12/31 05:46:31;;;;;;;9.53;6.13;;;;;;;12.93;86.67;100844.66;5078099;28;20445;-67
2021/12/31 05:48:56;;;;;;;8.50;5.87;;;;;;;12.92;87.04;100855.97;5078368;28;20801;-67
2021/12/31 05:51:21;;;;;;;8.17;7.37;;;;;;;13.19;86.07;100856.88;5078033;28;20542;-67
2021/12/31 05:53:47;;;;;;;6.57;5.97;;;;;;;12.60;87.75;100856.78;5077530;28;20632;-68
2021/12/31 05:56:12;;;;;;;9.20;6.27;;;;;;;13.19;85.94;100867.38;5078398;28;20507;-67
2021/12/31 05:58:37;;;;;;;8.80;6.40;;;;;;;13.07;85.90;100857.75;5078058;28;20181;-66
2021/12/31 06:01:03;;;;;;;10.53;6.53;;;;;;;13.12;85.94;100862.13;5077971;28;20211;-68
2021/12/31 06:03:28;;;;;;;7.60;6.87;;;;;;;12.90;87.02;100862.97;5078123;28;20173;-67
2021/12/31 06:05:53;;;;;;;9.50;6.67;;;;;;;12.99;86.80;100849.91;5077641;28;20514;-67
2021/12/31 06:08:18;;;;;;;8.70;6.53;;;;;;;13.16;86.02;100860.38;5078112;28;20197;-67
2021/12/31 06:10:44;;;;;;;11.83;7.03;;;;;;;13.06;86.26;100850.78;5078298;28;20169;-69
2021/12/31 06:13:11;;;;;;;7.50;6.80;;;;;;;13.09;86.38;100848.16;5076722;28;20172;-67
2021/12/31 06:15:36;;;;;;;13.97;8.47;;;;;;;13.18;86.19;100847.28;5077901;28;20183;-68
2021/12/31 06:18:02;;;;;;;10.63;7.60;;;;;;;13.01;86.17;100842.91;5078818;28;20412;-68
2021/12/31 06:20:28;;;;;;;9.00;7.93;;;;;;;13.20;85.71;100837.69;5077911;28;20181;-67
2021/12/31 06:22:55;;;;;;;9.90;7.90;;;;;;;12.95;86.72;100829.84;5078289;28;20165;-67
2021/12/31 06:25:20;;;;;;;10.13;7.97;;;;;;;12.97;86.39;100828.97;5081891;28;20848;-69
2021/12/31 06:27:46;;;;;;;9.47;8.50;;;;;;;13.36;85.58;100823.75;5081317;28;20429;-67
2021/12/31 06:30:11;;;;;;;10.13;9.10;;;;;;;12.93;88.09;100826.34;5081263;28;20169;-66
2021/12/31 06:32:37;;;;;;;9.87;9.00;;;;;;;12.94;88.27;100823.72;5081604;28;20252;-68
2021/12/31 06:35:03;;;;;;;9.97;8.87;;;;;;;12.95;87.89;100832.47;5081415;28;20526;-68
2021/12/31 06:37:28;;;;;;;10.63;9.60;;;;;;;12.82;88.72;100826.31;5081165;28;20183;-66
2021/12/31 06:39:53;;;;;;;10.73;9.63;;;;;;;12.75;88.79;100822.81;5081747;28;20204;-68
2021/12/31 06:42:19;;;;;;;11.67;9.23;;;;;;;13.00;87.68;100817.59;5081192;28;20177;-66
2021/12/31 06:44:44;;;;;;;11.37;10.17;;;;;;;12.95;88.18;100815.00;5081056;28;20196;-67
2021/12/31 06:47:09;;;;;;;11.00;10.10;;;;;;;12.76;88.71;100808.00;5081764;28;20176;-67
2021/12/31 06:49:35;;;;;;;14.20;10.20;;;;;;;13.05;87.46;100810.63;5081349;28;20184;-67
2021/12/31 06:52:00;;;;;;;10.80;9.70;;;;;;;13.09;87.35;100809.75;5081126;28;20184;-67
2021/12/31 06:54:26;;;;;;;11.43;10.37;;;;;;;12.87;88.29;100818.50;5081356;28;20260;-69
2021/12/31 06:56:51;;;;;;;16.63;11.13;;;;;;;13.07;87.04;100815.88;5080907;28;20211;-66
2021/12/31 06:59:16;;;;;;;11.50;9.87;;;;;;;13.13;86.24;100806.28;5080986;28;20216;-67
2021/12/31 07:01:42;;;;;;;10.60;9.70;;;;;;;12.87;87.83;100821.97;5081450;28;20181;-66
2021/12/31 07:04:07;;;;;;;10.53;9.53;;;;;;;12.81;88.16;100819.34;5080651;28;20208;-67
2021/12/31 07:06:32;;;;;;;10.83;9.73;;;;;;;13.14;86.93;100815.88;5080603;28;20281;-68
2021/12/31 07:08:58;;;;;;;10.73;9.83;;;;;;;13.02;87.51;100820.25;5081604;28;20181;-66
2021/12/31 07:11:23;;;;;;;11.80;10.27;;;;;;;12.90;87.99;100821.09;5080684;28;20238;-67
2021/12/31 07:13:49;;;;;;;14.90;10.57;;;;;;;12.90;87.86;100821.97;5080475;28;20248;-68
2021/12/31 07:16:15;;;;;;;11.33;10.43;;;;;;;13.08;86.72;100828.97;5081427;28;20173;-67
2021/12/31 07:18:40;;;;;;;16.53;11.10;;;;;;;12.93;87.75;100821.09;5080751;28;20420;-68
2021/12/31 07:21:05;;;;;;;12.00;10.50;;;;;;;12.88;87.88;100814.97;5080403;28;20169;-68
2021/12/31 07:23:31;;;;;;;12.67;11.27;;;;;;;13.02;87.06;100828.97;5080675;28;20212;-68
2021/12/31 07:25:56;;;;;;;11.50;10.60;;;;;;;13.09;86.78;100814.13;5080405;28;20220;-67
2021/12/31 07:28:21;;;;;;;11.77;10.43;;;;;;;12.91;86.95;100822.84;5080318;28;20195;-68
2021/12/31 07:30:47;;;;;;;11.30;10.20;;;;;;;12.83;88.19;100817.59;5080728;28;20173;-68
2021/12/31 07:33:17;;;;;;;11.83;10.73;;;;;;;13.06;87.11;100820.25;5080199;28;20177;-67
2021/12/31 07:35:43;;;;;;;11.77;10.60;;;;;;;13.05;86.81;100818.50;5079261;28;20172;-67
2021/12/31 07:38:17;;;;;;;11.63;10.40;;;;;;;12.98;87.02;100816.75;5080493;28;20438;-67
2021/12/31 07:40:43;;;;;;;12.10;10.90;;;;;;;12.88;87.48;100810.63;5080179;28;20182;-68
2021/12/31 07:43:09;;;;;;;11.10;10.10;;;;;;;12.95;87.35;100820.22;5079848;28;20490;-67
2021/12/31 07:45:35;;;;;;;11.63;10.53;;;;;;;12.94;87.14;100815.00;5080034;28;20228;-67
2021/12/31 07:48:00;;;;;;;11.97;10.87;;;;;;;12.93;86.77;100808.00;5079290;28;20470;-67
2021/12/31 07:50:26;;;;;;;11.43;10.27;;;;;;;12.98;86.42;100812.38;5080233;28;20192;-67
2021/12/31 07:52:52;;;;;;;12.73;11.57;;;;;;;13.16;86.34;100809.78;5079688;28;20251;-67
2021/12/31 07:55:17;;;;;;;11.23;9.97;;;;;;;12.94;86.47;100815.00;5079646;28;20283;-67
2021/12/31 07:57:43;;;;;;;10.33;9.43;;;;;;;12.95;86.69;100825.47;5080591;28;20588;-67
2021/12/31 08:00:09;;;;;;;11.27;10.27;;;;;;;13.10;86.29;100822.00;5084155;28;20189;-68
2021/12/31 08:02:34;;;;;;;10.53;9.60;;;;;;;13.37;84.66;100828.13;5080280;28;20433;-67
2021/12/31 08:04:59;;;;;;;10.00;9.20;;;;;;;13.07;86.06;100827.22;5080192;28;20447;-67
2021/12/31 08:07:25;;;;;;;10.13;9.13;;;;;;;13.03;86.23;100830.72;5079651;28;20188;-67
2021/12/31 08:09:50;;;;;;;9.93;9.17;;;;;;;13.01;86.01;100826.34;5079475;28;20290;-68
2021/12/31 08:12:15;;;;;;;10.03;9.03;;;;;;;13.07;85.83;100827.22;5079769;28;20183;-67
2021/12/31 08:14:41;;;;;;;9.57;8.70;;;;;;;13.10;85.38;100826.38;5079258;28;20315;-66
2021/12/31 08:17:06;;;;;;;9.47;8.70;;;;;;;13.09;85.93;100825.47;5079381;28;20176;-66
2021/12/31 08:19:31;;;;;;;10.03;9.10;;;;;;;13.40;84.40;100835.13;5080111;28;20523;-67
2021/12/31 08:21:56;;;;;;;10.73;9.20;;;;;;;13.21;85.19;100834.22;5080097;28;20177;-69
2021/12/31 08:24:22;;;;;;;9.73;8.83;;;;;;;13.14;85.68;100828.09;5080865;28;20177;-68
2021/12/31 08:26:47;;;;;;;8.90;8.20;;;;;;;13.37;84.13;100830.75;5081641;28;20169;-67
2021/12/31 08:29:13;;;;;;;9.07;8.40;;;;;;;13.08;85.32;100833.31;5079201;28;20173;-66
2021/12/31 08:31:40;;;;;;;10.03;9.10;;;;;;;13.32;84.21;100812.38;5082258;28;20244;-67
2021/12/31 08:34:07;;;;;;;8.80;7.87;;;;;;;13.34;84.03;100811.50;5086394;28;20403;-67
2021/12/31 08:36:33;;;;;;;8.47;7.87;;;;;;;13.28;84.51;100815.00;5083308;28;20422;-67
2021/12/31 08:38:59;;;;;;;9.77;8.10;;;;;;;13.33;84.39;100813.28;5078315;28;20438;-67
2021/12/31 08:41:24;;;;;;;8.50;7.70;;;;;;;13.40;83.17;100819.41;5079266;28;20600;-67
2021/12/31 08:43:50;;;;;;;8.80;8.10;;;;;;;13.13;84.88;100818.50;5078831;28;20423;-67
2021/12/31 08:46:15;;;;;;;8.97;8.07;;;;;;;13.69;82.62;100818.50;5078541;28;20223;-66
2021/12/31 08:48:40;;;;;;;8.83;7.93;;;;;;;13.25;83.61;100809.78;5079298;28;20251;-66
2021/12/31 08:51:05;;;;;;;7.63;7.00;;;;;;;13.37;83.18;100815.03;5078536;28;20229;-67
2021/12/31 08:53:31;;;;;;;8.40;7.60;;;;;;;13.48;82.73;100808.03;5078298;28;20311;-67
2021/12/31 08:55:56;;;;;;;7.03;6.53;;;;;;;13.21;83.68;100810.66;5079279;28;20495;-67
2021/12/31 08:58:21;;;;;;;8.33;7.63;;;;;;;13.45;82.93;100807.19;5078719;28;20183;-66
2021/12/31 09:00:47;;;;;;;7.37;6.60;;;;;;;13.33;83.27;100805.41;5078546;28;20267;-67
2021/12/31 09:03:12;;;;;;;7.40;6.77;;;;;;;13.66;81.77;100827.22;5078906;28;20188;-68
2021/12/31 09:05:38;;;;;;;6.10;5.60;;;;;;;13.35;82.77;100824.59;5078334;28;20487;-68
2021/12/31 09:08:03;;;;;;;8.70;7.20;;;;;;;13.54;82.04;100824.63;5077648;28;20247;-67
2021/12/31 09:10:28;;;;;;;6.87;6.27;;;;;;;13.46;82.56;100822.91;5078178;28;20168;-67
2021/12/31 09:12:54;;;;;;;7.27;6.40;;;;;;;13.48;82.04;100826.38;5078290;28;20188;-67
2021/12/31 09:15:19;;;;;;;5.60;5.20;;;;;;;13.30;82.49;100831.56;5078333;28;20200;-67
2021/12/31 09:17:45;;;;;;;6.33;5.73;;;;;;;13.70;81.11;100828.09;5079057;28;20169;-67
2021/12/31 09:20:10;;;;;;;6.90;6.20;;;;;;;13.55;81.44;100827.25;5078443;28;20168;-67
2021/12/31 09:22:36;;;;;;;7.67;5.30;;;;;;;13.55;81.12;100827.25;5078259;28;20542;-67
2021/12/31 09:25:02;;;;;;;6.70;5.27;;;;;;;13.75;80.51;100828.97;5079037;28;20200;-67
2021/12/31 09:27:27;;;;;;;6.40;5.10;;;;;;;13.67;80.76;100830.72;5078581;28;20202;-67
2021/12/31 09:29:53;;;;;;;7.13;5.73;;;;;;;13.78;80.17;100832.44;5078726;28;20415;-68
2021/12/31 09:32:18;;;;;;;6.10;5.50;;;;;;;13.57;80.58;100829.84;5079062;28;20176;-66
2021/12/31 09:34:44;;;;;;;5.97;5.40;;;;;;;13.67;79.85;100843.84;5080752;28;20201;-67
2021/12/31 09:37:12;;;;;;;5.70;5.20;;;;;;;13.63;80.06;100835.09;5081851;28;20172;-67
2021/12/31 09:39:37;;;;;;;5.60;5.10;;;;;;;13.75;79.81;100837.69;5078510;28;20538;-67
2021/12/31 09:42:06;;;;;;;5.97;5.03;;;;;;;13.65;80.35;100838.56;5077827;28;20497;-65
2021/12/31 09:44:35;;;;;;;6.60;5.93;;;;;;;13.56;80.40;100847.31;5077066;28;20251;-67
2021/12/31 09:47:07;;;;;;;4.90;4.60;;;;;;;13.52;80.32;100852.56;5078391;28;20500;-66
2021/12/31 09:49:39;;;;;;;5.67;5.13;;;;;;;13.56;80.64;100857.81;5077275;28;20419;-67
2021/12/31 09:52:06;;;;;;;5.30;4.90;;;;;;;13.85;79.45;100850.78;5077700;28;20908;-67
2021/12/31 09:54:31;;;;;;;5.83;5.20;;;;;;;13.49;80.53;100842.97;5076816;28;20546;-67
2021/12/31 09:56:57;;;;;;;5.40;4.90;;;;;;;13.98;78.87;100842.00;5077779;28;20423;-67
2021/12/31 09:59:24;;;;;;;6.70;5.50;;;;;;;13.37;80.41;100845.56;5082099;28;20527;-67
2021/12/31 10:01:52;;;;;;;5.57;5.10;;;;;;;13.43;80.69;100841.22;5081971;28;20286;-66
2021/12/31 10:04:18;;;;;;;5.80;5.30;;;;;;;13.56;79.66;100864.81;5081580;28;20389;-67
2021/12/31 10:07:05;;;;;;;7.73;5.57;;;;;;;13.71;79.64;100842.94;5082136;28;20443;-68
2021/12/31 10:09:31;;;;;;;5.87;5.30;;;;;;;13.68;80.27;100841.22;5081481;28;20457;-67
2021/12/31 10:11:57;;;;;;;6.83;6.23;;;;;;;13.52;80.45;100836.84;5081852;28;20425;-67
2021/12/31 10:14:35;;;;;;;6.20;5.60;;;;;;;13.77;79.33;100841.19;5081355;28;20419;-68
2021/12/31 10:17:00;;;;;;;6.47;5.93;;;;;;;13.70;79.24;100849.91;5081420;28;20230;-67
2021/12/31 10:19:25;;;;;;;6.40;5.77;;;;;;;13.70;79.93;100854.28;5080790;28;20415;-67
2021/12/31 10:21:54;;;;;;;5.40;5.00;;;;;;;13.72;79.60;100855.16;5081354;28;20173;-66
2021/12/31 10:24:33;;;;;;;6.50;5.23;;;;;;;13.94;78.62;100858.63;5081709;28;20532;-67
2021/12/31 10:27:09;;;;;;;6.83;6.13;;;;;;;13.84;79.62;100856.88;5081382;28;20427;-67
2021/12/31 10:29:34;;;;;;;6.47;5.87;;;;;;;13.83;79.56;100861.28;5081885;28;20410;-69
2021/12/31 10:32:00;;;;;;;7.53;5.77;;;;;;;13.56;79.95;100847.31;5081669;28;20660;-67
2021/12/31 10:34:26;;;;;;;6.77;5.60;;;;;;;13.57;80.94;100841.22;5081163;28;20456;-66
2021/12/31 10:36:51;;;;;;;6.03;5.53;;;;;;;13.61;79.72;100836.84;5081605;28;20242;-67
2021/12/31 10:39:25;;;;;;;6.10;5.60;;;;;;;13.53;80.47;100836.88;5080872;28;20457;-66
2021/12/31 10:41:59;;;;;;;7.97;6.43;;;;;;;13.58;80.10;100849.94;5081001;28;20434;-67
2021/12/31 10:44:40;;;;;;;6.60;6.00;;;;;;;13.62;80.12;100849.06;5080787;28;20588;-67
2021/12/31 10:47:13;;;;;;;7.57;5.73;;;;;;;13.73;80.05;100849.03;5081036;28;20521;-67
2021/12/31 10:50:09;;;;;;;7.03;6.10;;;;;;;13.86;79.06;100844.66;5080936;28;20422;-67
2021/12/31 10:53:01;;;;;;;7.23;6.60;;;;;;;13.67;79.72;100834.22;5080490;28;20437;-67
2021/12/31 10:55:34;;;;;;;6.63;6.03;;;;;;;13.52;80.24;100848.19;5076003;28;20538;-67
2021/12/31 10:58:01;;;;;;;6.33;5.80;;;;;;;13.50;80.49;100856.94;5080053;28;20431;-67
2021/12/31 11:00:29;;;;;;;6.37;5.87;;;;;;;13.50;80.21;100849.06;5080698;28;20419;-66
2021/12/31 11:02:56;;;;;;;6.63;5.93;;;;;;;13.73;79.31;100852.53;5080416;28;20423;-67
2021/12/31 11:05:22;;;;;;;6.90;6.30;;;;;;;13.38;80.58;100845.59;5080291;28;20485;-66
2021/12/31 11:07:48;;;;;;;6.10;5.60;;;;;;;13.32;80.42;100838.56;5080612;28;20415;-66
2021/12/31 11:10:15;;;;;;;6.30;5.67;;;;;;;13.53;79.73;100842.09;5062300;28;20824;-66
2021/12/31 11:12:45;;;;;;;6.17;5.67;;;;;;;13.59;79.32;100842.06;5080680;28;20406;-67